Time;durP1;ratioP1;P1;durP2;ratioP2;P2;SDS_P1;SDS_P2;PMS_P1;PMS_P2;Temp;Humidity;BMP_temperature;BMP_pressure;BME280_temperature;BME280_humidity;BME280_pressure;Samples;Min_cycle;Max_cycle;Signal;HPM_P1;HPM_P2
2023/03/05 04:02:17;;;;;;;2.40;1.90;;;14.30;44.70;;;;;;5043637;23;45736;-53
2023/03/05 04:04:43;;;;;;;2.53;1.80;;;14.30;44.80;;;;;;4905032;28;45308;-55
2023/03/05 04:07:08;;;;;;;2.53;1.90;;;14.30;44.80;;;;;;4946261;28;45296;-58
2023/03/05 04:09:34;;;;;;;2.10;1.80;;;14.30;44.70;;;;;;4909939;28;46602;-58
2023/03/05 04:11:59;;;;;;;2.47;2.00;;;14.30;44.70;;;;;;4958044;28;44681;-54
2023/03/05 04:14:26;;;;;;;1.90;1.70;;;14.30;44.70;;;;;;4963033;28;45610;-57
2023/03/05 04:16:51;;;;;;;2.80;1.70;;;14.30;44.70;;;;;;4945408;28;45608;-57
2023/03/05 04:19:17;;;;;;;2.20;1.80;;;14.30;44.80;;;;;;4925378;28;45313;-57
2023/03/05 04:21:42;;;;;;;2.30;1.70;;;14.30;44.70;;;;;;4946691;28;45219;-56
2023/03/05 04:24:08;;;;;;;2.30;2.00;;;14.30;44.80;;;;;;4949359;28;45512;-60
2023/03/05 04:26:34;;;;;;;2.20;1.93;;;14.20;44.70;;;;;;4960296;28;45346;-58
2023/03/05 04:28:59;;;;;;;2.10;1.70;;;14.20;44.70;;;;;;4946929;28;46051;-56
2023/03/05 04:31:25;;;;;;;2.40;1.85;;;14.30;44.70;;;;;;4947668;28;45822;-57
2023/03/05 04:33:50;;;;;;;1.90;1.70;;;14.30;44.70;;;;;;4959722;28;45392;-63
2023/03/05 04:36:16;;;;;;;2.53;2.07;;;14.30;44.70;;;;;;4962878;28;44935;-59
2023/03/05 04:38:42;;;;;;;2.00;1.80;;;14.20;44.70;;;;;;4949744;28;46327;-57
2023/03/05 04:41:07;;;;;;;2.60;1.90;;;14.30;44.80;;;;;;4963022;28;45258;-58
2023/03/05 04:43:33;;;;;;;2.27;1.90;;;14.20;44.70;;;;;;4936514;28;45604;-57
2023/03/05 04:45:58;;;;;;;2.40;1.73;;;14.20;44.70;;;;;;4944391;28;46246;-60
2023/03/05 04:48:24;;;;;;;2.00;1.60;;;14.20;44.70;;;;;;4961386;28;46776;-54
2023/03/05 04:50:49;;;;;;;2.15;1.83;;;14.20;44.70;;;;;;4961586;28;45263;-55
2023/03/05 04:53:15;;;;;;;2.30;1.77;;;14.20;44.70;;;;;;4962932;28;45874;-59
2023/03/05 04:55:41;;;;;;;2.37;1.87;;;14.20;44.70;;;;;;4964998;28;45549;-60
2023/03/05 04:58:07;;;;;;;2.05;1.80;;;14.20;44.70;;;;;;4938287;28;46323;-57
2023/03/05 05:00:32;;;;;;;2.40;2.00;;;14.20;44.70;;;;;;4961654;28;45554;-61
2023/03/05 05:02:58;;;;;;;2.40;1.75;;;14.20;44.70;;;;;;4940925;28;45619;-57
2023/03/05 05:05:26;;;;;;;3.13;2.00;;;14.20;44.70;;;;;;4964797;28;45022;-56
2023/03/05 05:07:56;;;;;;;2.10;1.80;;;14.20;44.70;;;;;;4965631;28;48458;-57
2023/03/05 05:10:22;;;;;;;2.30;1.80;;;14.20;44.70;;;;;;4962726;28;45394;-59
2023/03/05 05:12:47;;;;;;;2.10;1.90;;;14.20;44.70;;;;;;4938761;28;46539;-54
2023/03/05 05:15:13;;;;;;;2.08;1.50;;;14.20;44.70;;;;;;4932348;28;45311;-56
2023/03/05 05:17:38;;;;;;;2.00;1.80;;;14.20;44.70;;;;;;4935777;28;45506;-56
2023/03/05 05:20:05;;;;;;;2.10;1.70;;;14.20;44.70;;;;;;4949491;28;45995;-56
2023/03/05 05:22:31;;;;;;;2.15;1.77;;;14.20;44.70;;;;;;4964894;28;45309;-57
2023/03/05 05:24:56;;;;;;;2.03;1.67;;;14.20;44.80;;;;;;4951685;28;45414;-56
2023/03/05 05:27:22;;;;;;;2.03;1.80;;;14.20;44.80;;;;;;4963800;28;45614;-60
2023/03/05 05:29:51;;;;;;;2.13;1.70;;;14.20;44.80;;;;;;4950297;28;44977;-60
2023/03/05 05:32:17;;;;;;;2.10;1.80;;;14.20;44.80;;;;;;4963695;28;44806;-56
2023/03/05 05:34:43;;;;;;;2.20;1.87;;;14.20;44.80;;;;;;4945767;28;45597;-56
2023/03/05 05:37:08;;;;;;;2.13;1.70;;;14.20;44.80;;;;;;4959929;28;46277;-58
2023/03/05 05:39:34;;;;;;;2.60;1.87;;;14.20;44.80;;;;;;4947305;28;44730;-56
2023/03/05 05:42:00;;;;;;;2.57;1.87;;;14.20;44.80;;;;;;4961457;28;45772;-57
2023/03/05 05:44:25;;;;;;;2.60;1.95;;;14.20;44.80;;;;;;4927539;28;45538;-58
2023/03/05 05:46:51;;;;;;;2.00;1.50;;;14.20;44.80;;;;;;4960458;28;46415;-58
2023/03/05 05:49:16;;;;;;;2.20;1.93;;;14.20;44.80;;;;;;4961218;28;45351;-59
2023/03/05 05:51:42;;;;;;;2.20;1.70;;;14.20;44.80;;;;;;4946967;28;45323;-57
2023/03/05 05:54:12;;;;;;;2.37;1.60;;;14.20;44.80;;;;;;4951097;28;45295;-60
2023/03/05 05:56:37;;;;;;;2.00;1.75;;;14.20;44.80;;;;;;4949495;28;45280;-59
2023/03/05 05:59:03;;;;;;;2.07;1.70;;;14.20;44.80;;;;;;4958776;28;46368;-61
2023/03/05 06:01:30;;;;;;;2.10;1.90;;;14.20;44.80;;;;;;4927490;28;46061;-57
2023/03/05 06:03:55;;;;;;;1.73;1.63;;;14.10;44.80;;;;;;4932992;28;45998;-59
2023/03/05 06:06:22;;;;;;;1.60;1.50;;;14.20;45.40;;;;;;4934868;28;45383;-62
2023/03/05 06:08:48;;;;;;;2.30;1.80;;;14.10;44.80;;;;;;4949027;28;45285;-58
2023/03/05 06:11:15;;;;;;;2.13;1.90;;;14.10;44.80;;;;;;4941557;28;45625;-59
2023/03/05 06:13:41;;;;;;;1.92;1.67;;;14.10;44.90;;;;;;4931743;28;46064;-60
2023/03/05 06:16:10;;;;;;;1.67;1.50;;;14.10;44.80;;;;;;4962257;28;45755;-60
2023/03/05 06:18:36;;;;;;;2.47;1.77;;;14.10;44.80;;;;;;4947610;28;45252;-59
2023/03/05 06:21:04;;;;;;;1.92;1.52;;;14.10;44.80;;;;;;4961787;28;45143;-54
2023/03/05 06:23:29;;;;;;;1.80;1.70;;;14.10;44.90;;;;;;4946802;28;45621;-53
2023/03/05 06:25:58;;;;;;;2.63;2.10;;;14.10;44.80;;;;;;4945253;28;46617;-58
2023/03/05 06:28:23;;;;;;;2.30;1.77;;;14.10;44.80;;;;;;4945501;28;45329;-55
2023/03/05 06:30:49;;;;;;;1.90;1.63;;;14.10;44.80;;;;;;4966035;28;45252;-60
2023/03/05 06:33:15;;;;;;;2.27;1.80;;;14.10;44.90;;;;;;4947934;28;45294;-57
2023/03/05 06:35:40;;;;;;;1.90;1.70;;;14.10;44.90;;;;;;4946791;28;46945;-55
2023/03/05 06:38:06;;;;;;;2.03;1.77;;;14.10;44.90;;;;;;4942800;28;45489;-59
2023/03/05 06:40:32;;;;;;;2.05;1.73;;;14.10;44.90;;;;;;4931272;28;45377;-61
2023/03/05 06:42:57;;;;;;;2.22;1.90;;;14.10;44.90;;;;;;4959470;28;45715;-57
2023/03/05 06:45:23;;;;;;;1.90;1.60;;;14.10;44.90;;;;;;4961222;28;46695;-57
2023/03/05 06:47:48;;;;;;;2.17;1.90;;;14.10;44.90;;;;;;4942283;28;46186;-58
2023/03/05 06:50:14;;;;;;;1.90;1.70;;;14.10;44.90;;;;;;4953750;28;45786;-59
2023/03/05 06:52:40;;;;;;;2.47;1.80;;;14.00;44.80;;;;;;4957048;28;45998;-58
2023/03/05 06:55:06;;;;;;;2.00;1.70;;;14.00;44.90;;;;;;4951521;28;45977;-59
2023/03/05 06:57:32;;;;;;;1.80;1.67;;;14.10;44.90;;;;;;4928714;28;45404;-60
2023/03/05 06:59:58;;;;;;;1.90;1.70;;;14.00;44.80;;;;;;4944432;28;45363;-63
2023/03/05 07:02:23;;;;;;;2.23;1.73;;;14.10;44.90;;;;;;4912817;28;45621;-58
2023/03/05 07:04:49;;;;;;;2.00;1.67;;;14.00;44.90;;;;;;4947688;28;47369;-60
2023/03/05 07:07:14;;;;;;;1.80;1.60;;;14.00;44.90;;;;;;4943740;28;45444;-57
2023/03/05 07:09:42;;;;;;;2.50;1.83;;;14.10;44.90;;;;;;4959771;28;45901;-58
2023/03/05 07:12:11;;;;;;;2.47;1.92;;;14.00;44.90;;;;;;4958789;28;45077;-59
2023/03/05 07:14:37;;;;;;;1.90;1.70;;;14.00;44.90;;;;;;4946893;28;45493;-58
2023/03/05 07:17:04;;;;;;;1.75;1.60;;;14.10;44.90;;;;;;4922432;28;45309;-60
2023/03/05 07:19:30;;;;;;;3.45;2.20;;;14.00;44.90;;;;;;4959601;28;46008;-57
2023/03/05 07:21:55;;;;;;;2.07;1.73;;;14.00;44.90;;;;;;4948458;28;46232;-59
2023/03/05 07:24:23;;;;;;;2.60;2.00;;;14.00;44.90;;;;;;4944568;28;46592;-63
2023/03/05 07:26:49;;;;;;;2.70;1.90;;;14.00;44.90;;;;;;4928156;28;45009;-59
2023/03/05 07:29:14;;;;;;;2.17;1.80;;;14.00;44.80;;;;;;4941389;28;44987;-60
2023/03/05 07:31:40;;;;;;;2.30;1.80;;;14.00;44.90;;;;;;4963516;28;45303;-60
2023/03/05 07:34:05;;;;;;;2.43;2.00;;;14.00;44.90;;;;;;4965356;28;46451;-58
2023/03/05 07:36:33;;;;;;;2.13;1.93;;;14.00;44.90;;;;;;4939566;28;45249;-59
2023/03/05 07:38:59;;;;;;;1.90;1.70;;;14.00;44.90;;;;;;4960542;28;44779;-60
2023/03/05 07:41:24;;;;;;;2.17;1.83;;;14.00;44.90;;;;;;4958885;28;45502;-60
2023/03/05 07:43:51;;;;;;;2.07;1.80;;;14.00;45.00;;;;;;4954322;28;46743;-59
2023/03/05 07:46:18;;;;;;;2.28;2.05;;;14.00;45.00;;;;;;4918704;28;45278;-60
2023/03/05 07:48:44;;;;;;;1.73;1.63;;;13.90;45.00;;;;;;4942126;28;44713;-60
2023/03/05 07:51:13;;;;;;;2.30;1.93;;;14.00;45.00;;;;;;4928295;28;45661;-54
2023/03/05 07:53:39;;;;;;;2.42;1.85;;;14.00;45.00;;;;;;4928286;28;45436;-58
2023/03/05 07:56:05;;;;;;;;;;;14.00;45.60;;;;;;4963536;28;45413;-60
2023/03/05 07:58:30;;;;;;;;;;;13.60;45.80;;;;;;4943765;28;45320;-58
2023/03/05 08:00:56;;;;;;;;;;;13.40;46.40;;;;;;4945351;28;45563;-58
2023/03/05 08:03:21;;;;;;;1.70;1.33;;;13.30;46.80;;;;;;4963036;28;46885;-55
2023/03/05 08:05:47;;;;;;;1.85;1.50;;;13.30;46.60;;;;;;4943127;28;46571;-58
2023/03/05 08:08:13;;;;;;;2.40;1.48;;;13.10;46.60;;;;;;4943923;28;45289;-60
2023/03/05 08:10:39;;;;;;;2.38;1.50;;;13.10;46.70;;;;;;4959203;28;45421;-55
2023/03/05 08:13:04;;;;;;;1.85;1.50;;;13.10;46.80;;;;;;4944416;28;46580;-57
2023/03/05 08:15:33;;;;;;;2.17;1.30;;;13.10;46.80;;;;;;4941910;28;45820;-58
2023/03/05 08:17:58;;;;;;;1.90;1.48;;;13.10;46.80;;;;;;4964893;28;48971;-57
2023/03/05 08:20:24;;;;;;;1.65;1.50;;;13.10;46.80;;;;;;4951011;28;45393;-56
2023/03/05 08:22:50;;;;;;;2.28;1.70;;;13.10;46.80;;;;;;4960968;28;45520;-59
2023/03/05 08:25:15;;;;;;;1.67;1.48;;;13.10;46.70;;;;;;4944097;28;45286;-59
2023/03/05 08:27:42;;;;;;;1.60;1.30;;;13.10;46.70;;;;;;4963495;28;45391;-55
2023/03/05 08:30:10;;;;;;;1.67;1.17;;;13.10;46.70;;;;;;4964832;28;46658;-57
2023/03/05 08:32:36;;;;;;;1.88;1.35;;;13.10;46.80;;;;;;4959632;28;45997;-57
2023/03/05 08:35:03;;;;;;;2.17;1.40;;;13.10;46.70;;;;;;4961910;28;45267;-55
2023/03/05 08:37:29;;;;;;;2.70;1.52;;;13.00;46.80;;;;;;4959617;28;45510;-59
2023/03/05 08:39:57;;;;;;;2.75;1.80;;;13.10;46.80;;;;;;4947130;28;44815;-57
2023/03/05 08:42:23;;;;;;;2.70;1.50;;;13.00;46.70;;;;;;4948796;28;46553;-59
2023/03/05 08:44:49;;;;;;;2.58;1.80;;;13.10;46.80;;;;;;4948214;28;45265;-55
2023/03/05 08:47:14;;;;;;;1.85;1.40;;;13.00;46.80;;;;;;4965375;28;45845;-61
2023/03/05 08:49:40;;;;;;;1.83;1.17;;;13.00;46.80;;;;;;4946259;28;44837;-58
2023/03/05 08:52:06;;;;;;;1.98;1.52;;;13.00;46.90;;;;;;4929864;28;45490;-58
2023/03/05 08:54:32;;;;;;;2.55;1.60;;;13.00;46.90;;;;;;4962270;28;45366;-56
2023/03/05 08:56:58;;;;;;;2.25;1.60;;;13.00;46.90;;;;;;4963155;28;45466;-57
2023/03/05 08:59:23;;;;;;;1.52;1.17;;;12.90;46.90;;;;;;4948748;28;45215;-56
2023/03/05 09:01:49;;;;;;;1.90;1.30;;;13.00;47.00;;;;;;4961604;28;45849;-57
2023/03/05 09:04:14;;;;;;;1.73;1.40;;;12.90;46.90;;;;;;4944340;28;45622;-56
2023/03/05 09:06:40;;;;;;;2.05;1.45;;;13.00;47.00;;;;;;4940344;28;45597;-61
2023/03/05 09:09:07;;;;;;;2.08;1.45;;;13.00;46.90;;;;;;4961209;28;45006;-56
2023/03/05 09:11:34;;;;;;;2.10;1.58;;;12.90;46.90;;;;;;4944743;28;46687;-57
2023/03/05 09:14:03;;;;;;;2.20;1.15;;;12.90;47.00;;;;;;4962841;28;45315;-58
2023/03/05 09:16:29;;;;;;;2.10;1.40;;;12.90;47.00;;;;;;4933249;28;45642;-54
2023/03/05 09:18:54;;;;;;;1.95;1.27;;;13.00;47.00;;;;;;4944578;28;45325;-59
2023/03/05 09:21:20;;;;;;;2.38;1.55;;;12.90;47.00;;;;;;4948212;28;45706;-54
2023/03/05 09:23:46;;;;;;;2.10;1.58;;;12.90;47.00;;;;;;4932855;28;45246;-54
2023/03/05 09:26:12;;;;;;;1.95;1.48;;;13.00;47.70;;;;;;4924372;28;45766;-57
2023/03/05 09:28:38;;;;;;;1.70;1.27;;;12.90;47.10;;;;;;4962178;28;44715;-55
2023/03/05 09:31:04;;;;;;;2.53;1.40;;;12.90;47.10;;;;;;4961135;28;48283;-56
2023/03/05 09:33:31;;;;;;;3.05;1.50;;;12.90;47.10;;;;;;4946621;28;48532;-56
2023/03/05 09:35:57;;;;;;;1.83;1.38;;;12.90;47.10;;;;;;4932539;28;45191;-56
2023/03/05 09:38:22;;;;;;;2.53;1.67;;;12.90;47.10;;;;;;4944463;28;45443;-57
2023/03/05 09:40:58;;;;;;;1.80;1.48;;;12.90;47.10;;;;;;4962474;28;46785;-56
2023/03/05 09:43:50;;;;;;;2.60;1.50;;;12.90;47.20;;;;;;4933929;28;46014;-57
2023/03/05 09:46:30;;;;;;;1.80;1.15;;;12.90;47.40;;;;;;4900870;28;45798;-60
2023/03/05 09:49:20;;;;;;;1.42;1.05;;;12.90;47.30;;;;;;4927796;28;45376;-56
2023/03/05 09:51:45;;;;;;;1.52;1.10;;;12.90;47.20;;;;;;4951754;28;45714;-56
2023/03/05 09:54:14;;;;;;;2.17;1.58;;;12.90;47.20;;;;;;4903456;28;44982;-58
2023/03/05 09:56:41;;;;;;;1.80;1.30;;;12.90;47.20;;;;;;4931800;28;44769;-59
2023/03/05 09:59:26;;;;;;;2.05;1.42;;;12.90;47.20;;;;;;4951823;28;45314;-58
2023/03/05 10:01:52;;;;;;;2.15;1.50;;;12.90;47.30;;;;;;4962957;28;45639;-60
2023/03/05 10:04:42;;;;;;;2.47;1.52;;;12.90;47.20;;;;;;4938207;28;45313;-57
2023/03/05 10:07:13;;;;;;;1.80;1.17;;;12.90;47.30;;;;;;4954010;28;44768;-59
2023/03/05 10:09:49;;;;;;;1.85;1.42;;;12.90;47.20;;;;;;4950013;28;45355;-58
2023/03/05 10:12:33;;;;;;;1.85;1.33;;;12.90;47.20;;;;;;4947341;28;45402;-56
2023/03/05 10:15:01;;;;;;;1.80;1.20;;;12.90;47.20;;;;;;4966968;28;45450;-57
2023/03/05 10:17:47;;;;;;;1.45;1.20;;;12.90;47.20;;;;;;4948595;28;45667;-56
2023/03/05 10:20:22;;;;;;;2.40;1.20;;;12.90;47.40;;;;;;4952138;28;45581;-58
2023/03/05 10:23:06;;;;;;;2.00;1.20;;;12.90;47.30;;;;;;4944879;28;45541;-57
2023/03/05 10:25:53;;;;;;;1.40;0.95;;;12.90;47.40;;;;;;4960321;28;45501;-58
2023/03/05 10:28:32;;;;;;;1.83;1.30;;;12.90;47.50;;;;;;4937506;28;45285;-61
2023/03/05 10:31:23;;;;;;;1.60;1.30;;;12.90;47.40;;;;;;4933036;28;44977;-57
2023/03/05 10:34:04;;;;;;;2.22;1.20;;;12.90;47.50;;;;;;4950178;28;49333;-58
2023/03/05 10:37:00;;;;;;;1.35;1.10;;;12.90;47.50;;;;;;4962166;28;45420;-57
2023/03/05 10:39:59;;;;;;;1.77;1.20;;;12.90;47.50;;;;;;4966377;28;45551;-59
2023/03/05 10:42:36;;;;;;;1.70;1.55;;;12.90;47.50;;;;;;4930557;28;44862;-57
2023/03/05 10:45:33;;;;;;;2.15;1.13;;;12.90;47.40;;;;;;4918839;28;46297;-58
2023/03/05 10:48:06;;;;;;;1.48;1.17;;;12.90;47.50;;;;;;4931775;28;45181;-58
2023/03/05 10:50:41;;;;;;;1.42;1.25;;;12.90;47.40;;;;;;4929034;28;45530;-60
2023/03/05 10:53:14;;;;;;;1.90;1.27;;;12.90;47.40;;;;;;4942164;28;45342;-56
2023/03/05 10:55:40;;;;;;;1.20;1.00;;;12.90;47.40;;;;;;4942640;28;45345;-59
2023/03/05 10:58:13;;;;;;;1.75;1.25;;;12.90;47.30;;;;;;4945470;28;45416;-58
2023/03/05 11:00:39;;;;;;;2.05;1.38;;;12.90;47.40;;;;;;4948578;28;45402;-64
2023/03/05 11:03:07;;;;;;;1.83;1.17;;;12.90;47.30;;;;;;4949016;28;45768;-58
2023/03/05 11:05:46;;;;;;;1.55;1.13;;;12.90;47.30;;;;;;4937806;28;46679;-56
2023/03/05 11:08:29;;;;;;;2.17;1.08;;;12.90;47.40;;;;;;4931435;28;45259;-59
2023/03/05 11:11:02;;;;;;;1.67;1.20;;;12.90;47.40;;;;;;4927992;28;45820;-60
2023/03/05 11:13:27;;;;;;;1.45;1.27;;;12.90;47.40;;;;;;4934107;28;45754;-55
2023/03/05 11:16:01;;;;;;;1.73;1.13;;;12.90;47.40;;;;;;4958515;28;45536;-55
2023/03/05 11:18:30;;;;;;;1.45;1.23;;;12.90;47.40;;;;;;4927095;28;46511;-59
2023/03/05 11:21:09;;;;;;;1.15;1.05;;;12.90;47.30;;;;;;4944323;28;45544;-55
2023/03/05 11:23:35;;;;;;;2.22;1.33;;;12.90;47.40;;;;;;4961870;28;45069;-57
2023/03/05 11:26:00;;;;;;;1.35;1.17;;;12.90;47.40;;;;;;4962315;28;45565;-58
2023/03/05 11:28:34;;;;;;;1.42;1.00;;;12.90;47.40;;;;;;4957675;28;45037;-58
2023/03/05 11:31:11;;;;;;;1.52;1.33;;;12.90;47.40;;;;;;4915528;28;48311;-56
2023/03/05 11:33:37;;;;;;;1.33;1.00;;;12.90;47.40;;;;;;4929316;28;45195;-54
2023/03/05 11:36:25;;;;;;;1.88;1.27;;;12.90;47.30;;;;;;4947914;28;45599;-55
2023/03/05 11:38:51;;;;;;;1.70;1.23;;;12.90;47.50;;;;;;4963867;28;45192;-58
2023/03/05 11:41:20;;;;;;;1.95;1.20;;;12.90;47.40;;;;;;4962617;28;45486;-58
2023/03/05 11:43:46;;;;;;;1.30;1.20;;;12.90;47.30;;;;;;4941846;28;44862;-60
2023/03/05 11:46:12;;;;;;;1.70;1.23;;;12.90;47.30;;;;;;4920191;28;45524;-55
2023/03/05 11:48:38;;;;;;;1.48;1.10;;;12.90;47.40;;;;;;4952048;28;45319;-59
2023/03/05 11:51:16;;;;;;;2.13;1.40;;;12.90;47.30;;;;;;4943703;28;45316;-57
2023/03/05 11:53:41;;;;;;;1.40;1.00;;;12.90;47.40;;;;;;4930570;28;45295;-57
2023/03/05 11:56:26;;;;;;;1.60;1.40;;;12.90;47.40;;;;;;4934549;28;47105;-56
2023/03/05 11:59:05;;;;;;;1.80;1.10;;;12.90;47.50;;;;;;4954914;28;45243;-59
2023/03/05 12:01:34;;;;;;;1.83;1.17;;;12.90;47.50;;;;;;4928271;28;45591;-61
2023/03/05 12:04:00;;;;;;;1.50;1.10;;;12.90;47.40;;;;;;4943575;28;45187;-59
2023/03/05 12:06:32;;;;;;;1.20;1.00;;;12.90;47.40;;;;;;4928532;28;45354;-59
2023/03/05 12:09:00;;;;;;;1.45;1.00;;;12.90;47.40;;;;;;4946219;28;45335;-59
2023/03/05 12:11:32;;;;;;;1.48;1.10;;;12.90;47.40;;;;;;4941427;28;45628;-57
2023/03/05 12:14:18;;;;;;;1.30;1.00;;;12.90;47.40;;;;;;4918323;28;45292;-59
2023/03/05 12:16:59;;;;;;;2.03;1.20;;;12.90;47.40;;;;;;4944749;28;46220;-58
2023/03/05 12:19:45;;;;;;;1.00;0.90;;;12.90;47.40;;;;;;4947203;28;45339;-58
2023/03/05 12:22:15;;;;;;;1.30;1.00;;;12.90;47.50;;;;;;4957143;28;45615;-62
2023/03/05 12:24:41;;;;;;;1.13;1.02;;;12.90;47.40;;;;;;4942846;28;45448;-56
2023/03/05 12:27:08;;;;;;;2.00;1.20;;;12.90;47.40;;;;;;4941600;28;46631;-62
2023/03/05 12:29:50;;;;;;;1.48;1.02;;;12.90;47.40;;;;;;4945118;28;45424;-61
2023/03/05 12:32:21;;;;;;;1.48;1.00;;;12.80;47.30;;;;;;4941888;28;45344;-57
2023/03/05 12:34:50;;;;;;;1.30;0.90;;;12.90;47.50;;;;;;4961463;28;45748;-59
2023/03/05 12:37:24;;;;;;;1.38;1.10;;;12.90;47.40;;;;;;4946553;28;47153;-61
2023/03/05 12:39:57;;;;;;;1.27;0.93;;;12.90;47.40;;;;;;4951653;28;45333;-58
2023/03/05 12:42:28;;;;;;;1.70;1.10;;;12.90;47.40;;;;;;4936592;28;45458;-60
2023/03/05 12:45:14;;;;;;;0.95;0.80;;;12.90;47.50;;;;;;4943523;28;45366;-57
2023/03/05 12:48:09;;;;;;;1.90;1.15;;;12.90;47.50;;;;;;4926389;28;45440;-57
2023/03/05 12:50:38;;;;;;;1.38;1.00;;;12.90;47.50;;;;;;4952398;28;45469;-57
2023/03/05 12:53:06;;;;;;;1.27;1.10;;;12.90;47.40;;;;;;4950512;28;45527;-62
2023/03/05 12:55:33;;;;;;;1.17;1.02;;;12.90;47.40;;;;;;4951431;28;45352;-60
2023/03/05 12:58:02;;;;;;;1.00;0.82;;;12.80;47.30;;;;;;4938220;28;45700;-58
2023/03/05 13:00:38;;;;;;;1.42;1.13;;;12.90;47.40;;;;;;4939071;28;46136;-60
2023/03/05 13:03:06;;;;;;;1.38;1.15;;;12.90;47.40;;;;;;4942947;28;45352;-58
2023/03/05 13:05:34;;;;;;;0.98;0.88;;;12.90;47.40;;;;;;4916071;28;45196;-59
2023/03/05 13:08:24;;;;;;;1.40;1.05;;;12.90;47.40;;;;;;4931155;28;45390;-60
2023/03/05 13:11:02;;;;;;;1.70;1.08;;;12.90;47.50;;;;;;4937102;28;45549;-59
2023/03/05 13:13:34;;;;;;;1.52;0.90;;;12.90;47.50;;;;;;4940358;28;44818;-59
2023/03/05 13:15:59;;;;;;;1.25;1.00;;;12.90;47.50;;;;;;4903796;28;46078;-56
2023/03/05 13:18:29;;;;;;;0.90;0.85;;;12.80;47.40;;;;;;4919598;28;45785;-56
2023/03/05 13:21:01;;;;;;;1.38;1.00;;;12.90;47.50;;;;;;4939411;28;44754;-60
2023/03/05 13:23:27;;;;;;;1.45;1.00;;;12.90;47.40;;;;;;4955744;28;45943;-60
2023/03/05 13:26:10;;;;;;;1.10;0.82;;;12.80;47.40;;;;;;4943578;28;45518;-56
2023/03/05 13:28:38;;;;;;;1.77;1.25;;;12.80;47.40;;;;;;4960684;28;45496;-58
2023/03/05 13:31:13;;;;;;;1.27;1.10;;;12.90;47.40;;;;;;4959715;28;45673;-60
2023/03/05 13:33:38;;;;;;;1.10;1.00;;;12.90;47.50;;;;;;4945501;28;46068;-57
2023/03/05 13:36:04;;;;;;;1.52;1.10;;;12.90;47.40;;;;;;4940909;28;45758;-56
2023/03/05 13:38:34;;;;;;;1.30;0.85;;;12.90;47.40;;;;;;4945468;28;46207;-57
2023/03/05 13:41:10;;;;;;;1.60;1.20;;;12.90;47.40;;;;;;4927744;28;45450;-60
2023/03/05 13:43:46;;;;;;;1.15;1.02;;;12.90;47.40;;;;;;4961718;28;46043;-59
2023/03/05 13:46:12;;;;;;;1.85;1.13;;;12.90;47.40;;;;;;4948040;28;45336;-62
2023/03/05 13:48:38;;;;;;;1.27;1.15;;;12.90;47.40;;;;;;4963468;28;45570;-58
2023/03/05 13:51:05;;;;;;;1.27;0.98;;;12.90;47.40;;;;;;4963749;28;45284;-59
2023/03/05 13:53:31;;;;;;;1.30;1.10;;;12.90;47.40;;;;;;4963913;28;46301;-61
2023/03/05 13:56:03;;;;;;;2.58;1.00;;;12.90;47.40;;;;;;4929665;28;45232;-59
2023/03/05 13:58:52;;;;;;;1.20;1.10;;;12.90;47.40;;;;;;4932331;28;46619;-59
2023/03/05 14:01:21;;;;;;;1.23;0.95;;;12.90;47.50;;;;;;4946934;28;45264;-56
2023/03/05 14:03:50;;;;;;;1.45;0.95;;;12.90;47.40;;;;;;4961392;28;45158;-58
2023/03/05 14:06:18;;;;;;;1.35;0.90;;;12.90;47.40;;;;;;4942162;28;45279;-58
2023/03/05 14:08:47;;;;;;;2.42;0.77;;;12.90;47.40;;;;;;4935744;28;46294;-58
2023/03/05 14:11:16;;;;;;;1.15;1.02;;;12.90;47.40;;;;;;4943317;28;45121;-60
2023/03/05 14:13:42;;;;;;;2.70;0.95;;;12.80;47.30;;;;;;4962785;28;46244;-55
2023/03/05 14:16:10;;;;;;;1.25;1.15;;;12.90;47.40;;;;;;4922960;28;44714;-57
2023/03/05 14:18:36;;;;;;;1.02;0.85;;;12.90;47.40;;;;;;4946182;28;46282;-57
2023/03/05 14:21:08;;;;;;;1.25;1.00;;;12.90;47.40;;;;;;4930565;28;45254;-54
2023/03/05 14:23:39;;;;;;;1.53;1.10;;;12.80;47.30;;;;;;4944683;28;45729;-56
2023/03/05 14:26:33;;;;;;;1.63;1.17;;;12.80;47.30;;;;;;4945587;28;45508;-55
2023/03/05 14:29:03;;;;;;;;;;;12.90;47.40;;;;;;4947362;28;45950;-58
2023/03/05 14:31:30;;;;;;;0.88;0.80;;;12.80;47.50;;;;;;4948055;28;45683;-57
2023/03/05 14:34:03;;;;;;;1.08;0.98;;;12.80;47.40;;;;;;4932998;28;45697;-59
2023/03/05 14:36:29;;;;;;;1.25;0.85;;;12.90;47.50;;;;;;4925762;28;45004;-55
2023/03/05 14:38:55;;;;;;;0.80;0.80;;;12.90;47.40;;;;;;4920642;28;46139;-56
2023/03/05 14:41:34;;;;;;;1.10;0.90;;;12.90;47.40;;;;;;4942744;28;45444;-58
2023/03/05 14:44:00;;;;;;;1.00;0.90;;;12.90;47.40;;;;;;4930150;28;44731;-58
2023/03/05 14:46:26;;;;;;;1.05;0.95;;;12.90;47.30;;;;;;4945979;28;45332;-57
2023/03/05 14:48:53;;;;;;;0.75;0.70;;;12.90;47.30;;;;;;4927118;28;46560;-58
2023/03/05 14:51:18;;;;;;;1.40;0.85;;;12.90;47.30;;;;;;4956485;28;45383;-62
2023/03/05 14:53:45;;;;;;;1.10;1.00;;;12.90;47.30;;;;;;4919087;28;45665;-56
2023/03/05 14:56:24;;;;;;;1.00;0.90;;;12.90;47.30;;;;;;4960972;28;45533;-55
2023/03/05 14:58:50;;;;;;;0.95;0.73;;;12.90;47.40;;;;;;4962329;28;46129;-55
2023/03/05 15:01:15;;;;;;;1.25;0.70;;;12.90;47.40;;;;;;4960469;28;44966;-60
2023/03/05 15:03:41;;;;;;;1.48;0.90;;;12.90;47.40;;;;;;4946110;28;45308;-61
2023/03/05 15:06:12;;;;;;;0.70;0.70;;;12.90;47.30;;;;;;4961416;28;45726;-56
2023/03/05 15:08:38;;;;;;;1.98;0.90;;;12.90;47.30;;;;;;4928528;28;48359;-58
2023/03/05 15:11:05;;;;;;;0.90;0.80;;;12.90;47.30;;;;;;4943720;28;45134;-60
2023/03/05 15:13:31;;;;;;;1.00;0.90;;;12.90;47.30;;;;;;4962267;28;45819;-60
2023/03/05 15:15:57;;;;;;;1.10;0.88;;;12.90;47.30;;;;;;4928179;28;45254;-63
2023/03/05 15:18:22;;;;;;;0.85;0.70;;;12.90;47.40;;;;;;4946279;28;45553;-60
2023/03/05 15:20:48;;;;;;;1.02;0.70;;;12.90;47.40;;;;;;4958660;28;45529;-57
2023/03/05 15:23:14;;;;;;;1.55;1.00;;;12.90;47.40;;;;;;4933147;28;44664;-58
2023/03/05 15:25:40;;;;;;;1.42;1.10;;;12.90;47.30;;;;;;4960696;28;44866;-53
2023/03/05 15:28:06;;;;;;;1.40;1.13;;;12.90;47.30;;;;;;4928104;28;47017;-58
2023/03/05 15:30:39;;;;;;;1.00;0.90;;;12.90;47.30;;;;;;4917968;28;46013;-62
2023/03/05 15:33:09;;;;;;;1.10;0.85;;;12.90;47.30;;;;;;4932909;28;48519;-55
2023/03/05 15:35:35;;;;;;;2.03;0.90;;;12.80;47.20;;;;;;4951015;28;45621;-58
2023/03/05 15:38:01;;;;;;;1.23;1.00;;;12.90;47.30;;;;;;4942458;28;45341;-59
2023/03/05 15:40:27;;;;;;;1.23;0.88;;;12.90;47.30;;;;;;4960188;28;45243;-56
2023/03/05 15:42:53;;;;;;;1.20;0.90;;;12.90;47.30;;;;;;4946473;28;45495;-62
2023/03/05 15:45:19;;;;;;;1.55;1.02;;;12.90;47.30;;;;;;4943471;28;45302;-58
2023/03/05 15:47:47;;;;;;;1.17;0.80;;;12.90;47.30;;;;;;4959208;28;46069;-55
2023/03/05 15:50:13;;;;;;;1.38;0.95;;;12.90;47.30;;;;;;4942050;28;45102;-56
2023/03/05 15:52:38;;;;;;;1.67;0.98;;;12.90;47.30;;;;;;4933079;28;44817;-55
2023/03/05 15:55:04;;;;;;;1.17;0.85;;;12.90;47.30;;;;;;4911713;28;46262;-61
2023/03/05 15:57:34;;;;;;;0.98;0.90;;;12.90;47.30;;;;;;4959983;28;48689;-58
2023/03/05 16:00:00;;;;;;;1.00;0.85;;;12.90;47.30;;;;;;4923499;28;45287;-60
2023/03/05 16:02:25;;;;;;;1.17;1.00;;;12.90;47.30;;;;;;4945275;28;46517;-55
2023/03/05 16:04:51;;;;;;;1.10;1.00;;;12.90;47.30;;;;;;4931703;28;45316;-57
2023/03/05 16:07:16;;;;;;;1.13;0.82;;;12.90;47.30;;;;;;4931529;28;45361;-61
2023/03/05 16:09:44;;;;;;;0.60;0.60;;;12.90;47.30;;;;;;4908826;28;45252;-55
2023/03/05 16:12:13;;;;;;;0.80;0.70;;;12.90;47.30;;;;;;4957114;28;45272;-56
2023/03/05 16:14:38;;;;;;;0.95;0.85;;;12.90;47.40;;;;;;4941805;28;45417;-58
2023/03/05 16:17:04;;;;;;;1.10;0.93;;;12.90;47.30;;;;;;4928555;28;46631;-55
2023/03/05 16:19:29;;;;;;;1.10;0.90;;;12.90;47.40;;;;;;4932074;28;45263;-57
2023/03/05 16:21:55;;;;;;;1.38;0.90;;;12.90;47.30;;;;;;4937016;28;46188;-56
2023/03/05 16:24:21;;;;;;;1.85;1.40;;;12.90;47.30;;;;;;4957242;28;45922;-61
2023/03/05 16:26:46;;;;;;;1.55;0.80;;;12.90;47.30;;;;;;4940649;28;46312;-58
2023/03/05 16:29:12;;;;;;;1.05;0.75;;;12.90;47.30;;;;;;4922398;28;48433;-55
2023/03/05 16:31:39;;;;;;;1.52;0.95;;;12.90;47.30;;;;;;4952418;28;45281;-55
2023/03/05 16:34:04;;;;;;;0.88;0.80;;;12.80;47.30;;;;;;4957928;28;46114;-54
2023/03/05 16:36:30;;;;;;;1.20;1.00;;;12.80;47.30;;;;;;4941268;28;45364;-54
2023/03/05 16:38:57;;;;;;;0.80;0.80;;;12.80;47.40;;;;;;4956982;28;45372;-59
2023/03/05 16:41:23;;;;;;;2.38;1.02;;;12.80;47.40;;;;;;4940772;28;45229;-61
2023/03/05 16:43:49;;;;;;;0.85;0.85;;;12.80;47.40;;;;;;4914798;28;45560;-58
2023/03/05 16:46:14;;;;;;;1.25;1.02;;;12.80;47.40;;;;;;4936641;28;45589;-58
2023/03/05 16:48:43;;;;;;;1.13;0.80;;;12.80;47.40;;;;;;4924997;28;44993;-57
2023/03/05 16:51:09;;;;;;;1.13;0.82;;;12.80;47.50;;;;;;4938990;28;45179;-58
2023/03/05 16:53:35;;;;;;;1.08;0.90;;;12.80;47.40;;;;;;4938517;28;45908;-59
2023/03/05 16:56:02;;;;;;;1.52;0.80;;;12.80;47.50;;;;;;4910752;28;45580;-58
2023/03/05 16:58:28;;;;;;;1.40;1.10;;;12.80;47.50;;;;;;4955797;28;45415;-57